Aldine, TX

4:55 AM CST on February 13, 2016 (GMT -0600)
ARCHER ACRES | | Change Station
CLOSE
Current Station
Personal Weather Station
Location: Houston, TX
Elevation: 85 ft
Nearby Weather Stations

Elev 85 ft 29.85 °N, 95.35 °W | Updated 3 seconds ago

Partly Cloudy
Partly Cloudy
56.8 °F
Feels Like 56.8 °F
N
0.0
Wind Variable Wind from East
Gusts 0.0 mph

Today
High -- | Low -- °F
--% Chance of Precip.
Yesterday
High -- | Low -- °F
Precip. -- in
Pressure 30.29 in
Visibility 10.0 miles
Clouds Scattered Clouds 5000 ft
Dew Point 38 °F
Humidity 49%
Rainfall 0.00 in
Snow Depth Not available.
7:03 AM 6:08 PM
Waxing Crescent, 29% visible
METAR KIAH 130953Z 00000KT 10SM SCT050 12/10 A3029 RMK AO2 SLP257 T01220100
Pressure 30.29 in
Visibility 10.0 miles
Clouds Scattered Clouds 5000 ft
Dew Point 38 °F
Humidity 49%
Rainfall 0.00 in
Snow Depth Not available.
7:03 AM 6:08 PM
Waxing Crescent, 29% visible
METAR KIAH 130953Z 00000KT 10SM SCT050 12/10 A3029 RMK AO2 SLP257 T01220100

10-Day Weather Forecast

Almanac

Astronomy

Feb. 13, 2016 Rise Set
Actual Time
Civil Twilight
Nautical Twilight
Astronomical Twilight
Moon
Length of Visible Light
Length of Day
Tomorrow will be .
, % of the Moon is Illuminated

Today's Extremes

State Highs State Lows

Community

WunderPhotos

Upload Photos

1,892,537 photos uploaded!

WunderBlog® & News

Nearby

Air Quality

  Air Quality AQ Index Pollutant
Not available.

Snow Depth

Station Depth Elevation

Earthquake Activity

City Distance Mag. Time & Date
Minimum magnitude displayed is 2.5.

Coastal Water Temperatures

Place Temperature

Stations

Nearby Weather Stations

Station Location Temp. Windchill Dew Point Humidity Wind Precip. Elev Updated Type
                   

Watches & Warnings

There are currently no watches in effect.